Latest Weather Observations for Point Wilson

IDV60901

Issued at 10:41 am EDT Sunday 29 March 2015 (issued every 10 minutes, with the page automatically refreshed every 10 minutes)

About weather observations | Map of Melbourne area stations | Latest observations for Melbourne area | Other Formats
Station Details ID: 087166 Name: POINT WILSON Lat: -38.10 Lon: 144.54 Height: 18.0 m
Data from the previous 72 hours. | See also: Recent months at Point Wilson
Date/Time
EDT
Tmp

°C
App
Tmp
°C
Dew
Point
°C
Rel
Hum
%
Delta-T

°C
Wind Press
QNH
hPa
Press
MSL
hPa
Rain
since
9 am
mm
Dir
 
Spd
km/h
Gust
km/h
Spd
kts
Gust
kts
29/10:30am - - - - - WSW 9 11 5 6 - - -
29/10:00am - - - - - W 7 11 4 6 - - -
29/09:30am - - - - - W 9 11 5 6 - - -
29/09:00am - - - - - W 9 11 5 6 - - -
29/08:30am - - - - - CALM 0 6 0 3 - - -
29/08:00am - - - - - WNW 11 13 6 7 - - -
29/07:30am - - - - - WNW 7 11 4 6 - - -
29/07:00am - - - - - W 11 15 6 8 - - -
29/06:30am - - - - - W 9 11 5 6 - - -
29/06:00am - - - - - NW 7 9 4 5 - - -
29/05:30am - - - - - NNW 9 11 5 6 - - -
29/05:00am - - - - - NNW 11 13 6 7 - - -
29/04:30am - - - - - NNW 9 13 5 7 - - -
29/04:00am - - - - - NW 11 13 6 7 - - -
29/03:30am - - - - - NNW 9 11 5 6 - - -
29/03:00am - - - - - NW 11 13 6 7 - - -
29/02:30am - - - - - NW 11 13 6 7 - - -
29/02:00am - - - - - NW 11 13 6 7 - - -
29/01:30am - - - - - NW 11 13 6 7 - - -
29/01:00am - - - - - NW 9 11 5 6 - - -
29/12:30am - - - - - WNW 11 13 6 7 - - -
29/12:00am - - - - - WNW 11 13 6 7 - - -
 
Date/Time
EDT
Tmp

°C
App
Tmp
°C
Dew
Point
°C
Rel
Hum
%
Delta-T

°C
Wind Press
QNH
hPa
Press
MSL
hPa
Rain
since
9 am
mm
Dir
 
Spd
km/h
Gust
km/h
Spd
kts
Gust
kts
28/11:30pm - - - - - WSW 9 11 5 6 - - -
28/11:00pm - - - - - WSW 7 9 4 5 - - -
28/10:30pm - - - - - SSW 9 13 5 7 - - -
28/10:00pm - - - - - SE 7 9 4 5 - - -
28/09:30pm - - - - - ESE 11 13 6 7 - - -
28/09:00pm - - - - - ESE 11 13 6 7 - - -
28/08:30pm - - - - - ESE 13 15 7 8 - - -
28/08:00pm - - - - - S 15 17 8 9 - - -
28/07:30pm - - - - - ESE 13 19 7 10 - - -
28/07:00pm - - - - - E 19 20 10 11 - - -
28/06:30pm - - - - - E 20 22 11 12 - - -
28/06:00pm - - - - - E 22 26 12 14 - - -
28/05:30pm - - - - - S 11 15 6 8 - - -
28/05:00pm - - - - - SSW 13 17 7 9 - - -
28/04:30pm - - - - - SSW 15 17 8 9 - - -
28/04:00pm - - - - - SW 17 19 9 10 - - -
28/03:30pm - - - - - SW 17 20 9 11 - - -
28/03:00pm - - - - - SW 17 19 9 10 - - -
28/02:30pm - - - - - WSW 19 20 10 11 - - -
28/02:00pm - - - - - SW 13 17 7 9 - - -
28/01:30pm - - - - - SW 15 17 8 9 - - -
28/01:00pm - - - - - WSW 15 19 8 10 - - -
28/12:30pm - - - - - WSW 13 15 7 8 - - -
28/12:00pm - - - - - W 15 19 8 10 - - -
28/11:30am - - - - - W 15 17 8 9 - - -
28/11:00am - - - - - WSW 20 24 11 13 - - -
28/10:30am - - - - - WSW 20 24 11 13 - - -
28/10:00am - - - - - W 24 28 13 15 - - -
28/09:30am - - - - - W 26 28 14 15 - - -
28/09:00am - - - - - WSW 22 28 12 15 - - -
28/08:30am - - - - - WSW 24 30 13 16 - - -
28/08:00am - - - - - W 20 24 11 13 - - -
28/07:30am - - - - - W 22 26 12 14 - - -
28/07:00am - - - - - WSW 20 26 11 14 - - -
28/06:30am - - - - - WSW 20 26 11 14 - - -
28/06:00am - - - - - WSW 24 28 13 15 - - -
28/05:30am - - - - - W 20 26 11 14 - - -
28/05:00am - - - - - WSW 19 20 10 11 - - -
28/04:30am - - - - - SW 17 22 9 12 - - -
28/04:00am - - - - - WSW 24 30 13 16 - - -
28/03:30am - - - - - WSW 28 32 15 17 - - -
28/03:00am - - - - - W 26 32 14 17 - - -
28/02:30am - - - - - W 24 30 13 16 - - -
28/02:00am - - - - - WSW 24 30 13 16 - - -
28/01:30am - - - - - W 24 30 13 16 - - -
28/01:00am - - - - - W 26 30 14 16 - - -
28/12:30am - - - - - W 24 30 13 16 - - -
28/12:00am - - - - - W 20 24 11 13 - - -
 
Date/Time
EDT
Tmp

°C
App
Tmp
°C
Dew
Point
°C
Rel
Hum
%
Delta-T

°C
Wind Press
QNH
hPa
Press
MSL
hPa
Rain
since
9 am
mm
Dir
 
Spd
km/h
Gust
km/h
Spd
kts
Gust
kts
27/11:30pm - - - - - WSW 26 30 14 16 - - -
27/11:00pm - - - - - WSW 26 30 14 16 - - -
27/10:30pm - - - - - WSW 20 24 11 13 - - -
27/10:00pm - - - - - WSW 28 32 15 17 - - -
27/09:30pm - - - - - SW 24 30 13 16 - - -
27/09:00pm - - - - - WSW 22 26 12 14 - - -
27/08:30pm - - - - - SW 20 24 11 13 - - -
27/08:00pm - - - - - SSW 24 28 13 15 - - -
27/07:30pm - - - - - SW 22 30 12 16 - - -
27/07:00pm - - - - - SW 26 32 14 17 - - -
27/06:30pm - - - - - SW 24 28 13 15 - - -
27/06:00pm - - - - - SW 24 30 13 16 - - -
27/05:30pm - - - - - SW 24 28 13 15 - - -
27/05:00pm - - - - - SSW 20 28 11 15 - - -
27/04:30pm - - - - - SSW 28 33 15 18 - - -
27/04:00pm - - - - - SSW 20 24 11 13 - - -
27/03:30pm - - - - - WSW 26 33 14 18 - - -
27/03:00pm - - - - - WSW 32 37 17 20 - - -
27/02:30pm - - - - - W 35 46 19 25 - - -
27/02:00pm - - - - - WSW 33 41 18 22 - - -
27/01:30pm - - - - - WSW 35 41 19 22 - - -
27/01:00pm - - - - - WSW 35 44 19 24 - - -
27/12:30pm - - - - - WSW 32 39 17 21 - - -
27/12:00pm - - - - - WSW 33 39 18 21 - - -
27/11:30am - - - - - WSW 33 41 18 22 - - -
27/11:00am - - - - - WSW 37 44 20 24 - - -
27/10:30am - - - - - WSW 33 43 18 23 - - -
27/10:00am - - - - - W 37 44 20 24 - - -
27/09:30am - - - - - W 39 48 21 26 - - -
27/09:00am - - - - - W 43 50 23 27 - - -
27/08:30am - - - - - W 39 46 21 25 - - -
27/08:00am - - - - - W 39 46 21 25 - - -
27/07:30am - - - - - W 39 52 21 28 - - -
27/07:00am - - - - - W 43 50 23 27 - - -
27/06:30am - - - - - W 41 50 22 27 - - -
27/06:00am - - - - - W 44 54 24 29 - - -
27/05:30am - - - - - W 46 56 25 30 - - -
27/05:00am - - - - - W 44 56 24 30 - - -
27/04:30am - - - - - W 43 50 23 27 - - -
27/04:00am - - - - - W 43 50 23 27 - - -
27/03:30am - - - - - W 43 54 23 29 - - -
27/03:00am - - - - - W 43 50 23 27 - - -
27/02:30am - - - - - W 43 50 23 27 - - -
27/02:00am - - - - - W 44 52 24 28 - - -
27/01:30am - - - - - W 46 56 25 30 - - -
27/01:00am - - - - - WNW 39 52 21 28 - - -
27/12:30am - - - - - W 44 54 24 29 - - -
27/12:00am - - - - - W 44 52 24 28 - - -
 
Date/Time
EDT
Tmp

°C
App
Tmp
°C
Dew
Point
°C
Rel
Hum
%
Delta-T

°C
Wind Press
QNH
hPa
Press
MSL
hPa
Rain
since
9 am
mm
Dir
 
Spd
km/h
Gust
km/h
Spd
kts
Gust
kts
26/11:30pm - - - - - W 50 65 27 35 - - -
26/11:23pm - - - - - W 46 65 25 35 - - -
26/11:00pm - - - - - W 46 56 25 30 - - -
26/10:30pm - - - - - W 46 57 25 31 - - -
26/10:00pm - - - - - W 46 54 25 29 - - -
26/09:30pm - - - - - W 43 59 23 32 - - -
26/09:00pm - - - - - WNW 41 50 22 27 - - -
26/08:30pm - - - - - WNW 44 56 24 30 - - -
26/08:00pm - - - - - WNW 43 54 23 29 - - -
26/07:30pm - - - - - WNW 46 65 25 35 - - -
26/07:00pm - - - - - WNW 50 69 27 37 - - -
26/06:35pm - - - - - WNW 48 67 26 36 - - -
26/06:30pm - - - - - WNW 48 63 26 34 - - -
26/06:13pm - - - - - WNW 54 72 29 39 - - -
26/06:00pm - - - - - NW 56 72 30 39 - - -
26/05:30pm - - - - - NW 52 70 28 38 - - -
26/05:29pm - - - - - NW 52 70 28 38 - - -
26/05:00pm - - - - - NW 48 61 26 33 - - -
26/04:30pm - - - - - NW 46 59 25 32 - - -
26/04:01pm - - - - - NW 48 67 26 36 - - -
26/04:00pm - - - - - NW 48 59 26 32 - - -
26/03:38pm - - - - - WNW 52 70 28 38 - - -
26/03:30pm - - - - - WNW 57 69 31 37 - - -
26/03:17pm - - - - - WNW 46 65 25 35 - - -
26/03:00pm - - - - - NW 52 61 28 33 - - -
26/02:38pm - - - - - NW 43 61 23 33 - - -
26/02:30pm - - - - - WNW 44 57 24 31 - - -
26/02:16pm - - - - - NW 48 56 26 30 - - -
26/02:00pm - - - - - WNW 46 57 25 31 - - -
26/01:30pm - - - - - WNW 44 76 24 41 - - -
26/01:26pm - - - - - WNW 43 76 23 41 - - -
26/01:00pm - - - - - NW 46 57 25 31 - - -
26/12:30pm - - - - - WNW 44 59 24 32 - - -
26/12:00pm - - - - - WNW 39 50 21 27 - - -
26/11:30am - - - - - WNW 37 50 20 27 - - -
26/11:00am - - - - - W 41 54 22 29 - - -

Latest Capital City Observations: Canberra | Sydney | Melbourne | Brisbane | Adelaide | Perth | Hobart | Darwin

Other Formats:

Comma delimited format used in spreadsheet applications
http://www.bom.gov.au/fwo/IDV60901/IDV60901.94847.axf

JavaScript Object Notation format (JSON) in row-major order
http://www.bom.gov.au/fwo/IDV60901/IDV60901.94847.json